MSC Fiammetta — 3EOU7 — position and weather

sailwx.info

Track history (hours):
 
Tides and Currents Weather Stations Pressure Air Temp Water Temp Dewpoint Dewpoint Depression Visibility Wind Speed Wind Dir Waves Ship Positions

MSC Fiammetta

Last reported at 2018-Jan-27 09:31 UTC. Time now 2018-Feb-20 06:15 UTC.
Position N 01°15' E 103°25'.
Warning: this ship's position is 23 days out of date.

Length 277 m; draft 13.8 m.

Type: Ship (hazmat cat A). MMSI: 372843000.

Date/timePositionNaut miles runAvg speedWind from/ knotsBaromVisibWave heightAir tempDewpointWater temp
2018-Jan-27 09:31N 01°15' E 103°25'517.5
2018-Jan-27 09:13N 01°13' E 103°30'517.2
2018-Jan-27 08:57N 01°12' E 103°35'611.7
2018-Jan-27 08:26N 01°13' E 103°40'410.0
2018-Jan-27 08:00N 01°15' E 103°44'2 4.1
2018-Jan-27 07:29N 01°16' E 103°46'0 0.0
2018-Jan-27 06:59N 01°16' E 103°46'0 0.0
2018-Jan-27 06:29N 01°16' E 103°46'0 0.0
2018-Jan-27 05:53N 01°16' E 103°46'0 0.0
2018-Jan-27 05:29N 01°16' E 103°46'0 0.0
2018-Jan-27 04:59N 01°16' E 103°46'0 0.0
2018-Jan-27 04:23N 01°16' E 103°46'0 0.0
2018-Jan-27 03:59N 01°16' E 103°46'0 0.0
2018-Jan-27 03:23N 01°16' E 103°46'0 0.0
2018-Jan-27 02:35N 01°16' E 103°46'0 0.0
2018-Jan-27 02:26N 01°16' E 103°46'0 0.0
2018-Jan-27 01:53N 01°16' E 103°46'0 0.0
2018-Jan-27 01:29N 01°16' E 103°46'0 0.0
2018-Jan-27 00:56N 01°16' E 103°46'0 0.0
2018-Jan-27 00:29N 01°16' E 103°46'0 0.0
2018-Jan-26 23:59N 01°16' E 103°46'0 0.0
2018-Jan-26 23:20N 01°16' E 103°46'0 0.0
2018-Jan-26 22:59N 01°16' E 103°46'0 0.0
2018-Jan-26 22:29N 01°16' E 103°46'0 0.0
2018-Jan-26 21:47N 01°16' E 103°46'0 0.0
2018-Jan-26 20:23N 01°16' E 103°46'0 0.0
2018-Jan-26 18:26N 01°16' E 103°46'0 0.0
2018-Jan-26 16:59N 01°16' E 103°46'0 0.0
2018-Jan-26 16:26N 01°16' E 103°46'0 0.0
2018-Jan-26 15:53N 01°16' E 103°46'0 0.0
2018-Jan-26 15:17N 01°16' E 103°46'0 0.0
2018-Jan-26 14:59N 01°16' E 103°46'0 0.0
2018-Jan-26 14:29N 01°16' E 103°46'0 0.0
2018-Jan-26 13:59N 01°16' E 103°46'0 0.0
2018-Jan-26 13:17N 01°16' E 103°46'0 0.0
2018-Jan-26 12:53N 01°16' E 103°46'0 0.0
2018-Jan-26 12:29N 01°16' E 103°46'0 0.0
2018-Jan-26 11:56N 01°16' E 103°46'0 0.0
2018-Jan-26 11:20N 01°16' E 103°46'0 0.0
2018-Jan-26 10:59N 01°16' E 103°46'0 0.0
2018-Jan-26 10:29N 01°16' E 103°46'0 0.0
2018-Jan-26 09:59N 01°16' E 103°46'0 0.0
2018-Jan-26 09:29N 01°16' E 103°46'0 0.0
2018-Jan-26 08:53N 01°16' E 103°46'0 0.0
2018-Jan-26 08:26N 01°16' E 103°46'0 0.0
2018-Jan-26 07:38N 01°16' E 103°46'0 0.0
2018-Jan-26 07:29N 01°16' E 103°46'0 0.0
2018-Jan-26 06:59N 01°16' E 103°46'0 0.0
2018-Jan-26 06:26N 01°16' E 103°46'0 0.0
2018-Jan-26 05:56N 01°16' E 103°46'0 0.0
2018-Jan-26 05:29N 01°16' E 103°46'0 0.3
2018-Jan-26 04:59N 01°16' E 103°46'2 4.6
2018-Jan-26 04:31N 01°14' E 103°47'0 0.3
2018-Jan-26 03:57N 01°14' E 103°47'0 0.1
2018-Jan-26 03:26N 01°14' E 103°47'0 0.0
2018-Jan-26 03:00N 01°14' E 103°47'0 0.0
2018-Jan-26 02:29N 01°14' E 103°47'0 0.1
2018-Jan-26 01:52N 01°14' E 103°47'0 0.2
2018-Jan-26 01:30N 01°14' E 103°47'0 0.2
2018-Jan-26 01:00N 01°14' E 103°47'2 3.1
2018-Jan-26 00:30N 01°13' E 103°48'610.5
2018-Jan-25 23:57N 01°14' E 103°54'3 6.1
2018-Jan-25 23:29N 01°14' E 103°57'4 8.1
2018-Jan-25 23:00N 01°15' E 104°00'5 9.6
2018-Jan-25 22:28N 01°16' E 104°05'5 9.0
2018-Jan-25 21:56N 01°17' E 104°10'  
Track history (hours):
 
Tides and Currents Weather Stations Pressure Air Temp Water Temp Dewpoint Dewpoint Depression Visibility Wind Speed Wind Dir Waves Ship Positions

MSC Fiammetta

Last reported at 2018-Jan-27 09:31 UTC. Time now 2018-Feb-20 06:15 UTC.
Position N 01°15' E 103°25'.
Warning: this ship's position is 23 days out of date.

Length 277 m; draft 13.8 m.

Type: Ship (hazmat cat A). MMSI: 372843000.

Date/timePositionNaut miles runAvg speedWind from/ knotsBaromVisibWave heightAir tempDewpointWater temp
2018-Jan-27 09:31N 01°15' E 103°25'517.5
2018-Jan-27 09:13N 01°13' E 103°30'517.2
2018-Jan-27 08:57N 01°12' E 103°35'611.7
2018-Jan-27 08:26N 01°13' E 103°40'410.0
2018-Jan-27 08:00N 01°15' E 103°44'2 4.1
2018-Jan-27 07:29N 01°16' E 103°46'0 0.0
2018-Jan-27 06:59N 01°16' E 103°46'0 0.0
2018-Jan-27 06:29N 01°16' E 103°46'0 0.0
2018-Jan-27 05:53N 01°16' E 103°46'0 0.0
2018-Jan-27 05:29N 01°16' E 103°46'0 0.0
2018-Jan-27 04:59N 01°16' E 103°46'0 0.0
2018-Jan-27 04:23N 01°16' E 103°46'0 0.0
2018-Jan-27 03:59N 01°16' E 103°46'0 0.0
2018-Jan-27 03:23N 01°16' E 103°46'0 0.0
2018-Jan-27 02:35N 01°16' E 103°46'0 0.0
2018-Jan-27 02:26N 01°16' E 103°46'0 0.0
2018-Jan-27 01:53N 01°16' E 103°46'0 0.0
2018-Jan-27 01:29N 01°16' E 103°46'0 0.0
2018-Jan-27 00:56N 01°16' E 103°46'0 0.0
2018-Jan-27 00:29N 01°16' E 103°46'0 0.0
2018-Jan-26 23:59N 01°16' E 103°46'0 0.0
2018-Jan-26 23:20N 01°16' E 103°46'0 0.0
2018-Jan-26 22:59N 01°16' E 103°46'0 0.0
2018-Jan-26 22:29N 01°16' E 103°46'0 0.0
2018-Jan-26 21:47N 01°16' E 103°46'0 0.0
2018-Jan-26 20:23N 01°16' E 103°46'0 0.0
2018-Jan-26 18:26N 01°16' E 103°46'0 0.0
2018-Jan-26 16:59N 01°16' E 103°46'0 0.0
2018-Jan-26 16:26N 01°16' E 103°46'0 0.0
2018-Jan-26 15:53N 01°16' E 103°46'0 0.0
2018-Jan-26 15:17N 01°16' E 103°46'0 0.0
2018-Jan-26 14:59N 01°16' E 103°46'0 0.0
2018-Jan-26 14:29N 01°16' E 103°46'0 0.0
2018-Jan-26 13:59N 01°16' E 103°46'0 0.0
2018-Jan-26 13:17N 01°16' E 103°46'0 0.0
2018-Jan-26 12:53N 01°16' E 103°46'0 0.0
2018-Jan-26 12:29N 01°16' E 103°46'0 0.0
2018-Jan-26 11:56N 01°16' E 103°46'0 0.0
2018-Jan-26 11:20N 01°16' E 103°46'0 0.0
2018-Jan-26 10:59N 01°16' E 103°46'0 0.0
2018-Jan-26 10:29N 01°16' E 103°46'0 0.0
2018-Jan-26 09:59N 01°16' E 103°46'0 0.0
2018-Jan-26 09:29N 01°16' E 103°46'0 0.0
2018-Jan-26 08:53N 01°16' E 103°46'0 0.0
2018-Jan-26 08:26N 01°16' E 103°46'0 0.0
2018-Jan-26 07:38N 01°16' E 103°46'0 0.0
2018-Jan-26 07:29N 01°16' E 103°46'0 0.0
2018-Jan-26 06:59N 01°16' E 103°46'0 0.0
2018-Jan-26 06:26N 01°16' E 103°46'0 0.0
2018-Jan-26 05:56N 01°16' E 103°46'0 0.0
2018-Jan-26 05:29N 01°16' E 103°46'0 0.3
2018-Jan-26 04:59N 01°16' E 103°46'2 4.6
2018-Jan-26 04:31N 01°14' E 103°47'0 0.3
2018-Jan-26 03:57N 01°14' E 103°47'0 0.1
2018-Jan-26 03:26N 01°14' E 103°47'0 0.0
2018-Jan-26 03:00N 01°14' E 103°47'0 0.0
2018-Jan-26 02:29N 01°14' E 103°47'0 0.1
2018-Jan-26 01:52N 01°14' E 103°47'0 0.2
2018-Jan-26 01:30N 01°14' E 103°47'0 0.2
2018-Jan-26 01:00N 01°14' E 103°47'2 3.1
2018-Jan-26 00:30N 01°13' E 103°48'610.5
2018-Jan-25 23:57N 01°14' E 103°54'3 6.1
2018-Jan-25 23:29N 01°14' E 103°57'4 8.1
2018-Jan-25 23:00N 01°15' E 104°00'5 9.6
2018-Jan-25 22:28N 01°16' E 104°05'5 9.0
2018-Jan-25 21:56N 01°17' E 104°10'  

Dump ship's entire track history